Terminal Aerodrome Forecast
Issued by NWS

Home | Current Version | Previous Version | Graphics & Text | Print | Product List | Glossary On
Versions: 1 2 3 4 5 6 7 8 9 10 11 12 13 14 15 16 17 18 19 20 21 22 23 24 25 26
615
FTUS43 KBIS 241210 AAA
TAFJMS
TAF AMD
KJMS 241210Z 2412/2512 14013G20KT 6SM BR SCT009 BKN090
     FM241700 15013G20KT P6SM -SHRA VCTS OVC035CB
     FM242300 19012KT P6SM BKN070
     FM251100 27012G18KT P6SM BKN025=

USA.gov is the U.S. government's official web portal to all federal, state and local government web resources and services.